sensor_id;sensor_type;location;lat;lon;timestamp;temperature;humidity
39189;DHT22;24915;50.858;4.376;2022-07-18T00:00:06;22.10;66.10
39189;DHT22;24915;50.858;4.376;2022-07-18T00:02:33;22.10;66.10
39189;DHT22;24915;50.858;4.376;2022-07-18T00:04:59;22.10;66.20
39189;DHT22;24915;50.858;4.376;2022-07-18T00:07:24;22.10;66.60
39189;DHT22;24915;50.858;4.376;2022-07-18T00:09:50;22.00;66.70
39189;DHT22;24915;50.858;4.376;2022-07-18T00:12:16;22.00;66.70
39189;DHT22;24915;50.858;4.376;2022-07-18T00:14:42;22.00;66.80
39189;DHT22;24915;50.858;4.376;2022-07-18T00:17:08;21.90;66.90
39189;DHT22;24915;50.858;4.376;2022-07-18T00:19:34;21.90;67.10
39189;DHT22;24915;50.858;4.376;2022-07-18T00:22:00;21.90;67.50
39189;DHT22;24915;50.858;4.376;2022-07-18T00:24:26;21.90;67.80
39189;DHT22;24915;50.858;4.376;2022-07-18T00:26:52;21.80;67.50
39189;DHT22;24915;50.858;4.376;2022-07-18T00:29:18;21.80;67.50
39189;DHT22;24915;50.858;4.376;2022-07-18T00:31:44;21.80;67.70
39189;DHT22;24915;50.858;4.376;2022-07-18T00:34:09;21.80;68.10
39189;DHT22;24915;50.858;4.376;2022-07-18T00:36:35;21.70;68.20
39189;DHT22;24915;50.858;4.376;2022-07-18T00:39:01;21.70;68.10
39189;DHT22;24915;50.858;4.376;2022-07-18T00:41:26;21.70;68.20
39189;DHT22;24915;50.858;4.376;2022-07-18T00:43:52;21.70;68.50
39189;DHT22;24915;50.858;4.376;2022-07-18T00:46:25;21.60;68.60
39189;DHT22;24915;50.858;4.376;2022-07-18T00:48:52;21.60;68.30
39189;DHT22;24915;50.858;4.376;2022-07-18T00:51:19;21.50;68.40
39189;DHT22;24915;50.858;4.376;2022-07-18T00:53:46;21.50;68.50
39189;DHT22;24915;50.858;4.376;2022-07-18T00:56:12;21.50;68.50
39189;DHT22;24915;50.858;4.376;2022-07-18T00:58:39;21.40;68.40
39189;DHT22;24915;50.858;4.376;2022-07-18T01:01:05;21.40;68.50
39189;DHT22;24915;50.858;4.376;2022-07-18T01:03:49;21.30;69.00
39189;DHT22;24915;50.858;4.376;2022-07-18T01:06:15;21.30;69.10
39189;DHT22;24915;50.858;4.376;2022-07-18T01:08:43;21.30;69.10
39189;DHT22;24915;50.858;4.376;2022-07-18T01:11:09;21.30;69.30
39189;DHT22;24915;50.858;4.376;2022-07-18T01:13:36;21.30;69.70
39189;DHT22;24915;50.858;4.376;2022-07-18T01:16:01;21.30;69.60
39189;DHT22;24915;50.858;4.376;2022-07-18T01:18:27;21.30;69.60
39189;DHT22;24915;50.858;4.376;2022-07-18T01:20:53;21.30;69.60
39189;DHT22;24915;50.858;4.376;2022-07-18T01:23:18;21.30;69.50
39189;DHT22;24915;50.858;4.376;2022-07-18T01:25:44;21.30;70.00
39189;DHT22;24915;50.858;4.376;2022-07-18T01:28:10;21.20;69.70
39189;DHT22;24915;50.858;4.376;2022-07-18T01:30:35;21.20;69.60
39189;DHT22;24915;50.858;4.376;2022-07-18T01:33:02;21.20;69.80
39189;DHT22;24915;50.858;4.376;2022-07-18T01:35:30;21.10;70.20
39189;DHT22;24915;50.858;4.376;2022-07-18T01:37:58;21.00;70.30
39189;DHT22;24915;50.858;4.376;2022-07-18T01:40:24;21.00;70.60
39189;DHT22;24915;50.858;4.376;2022-07-18T01:42:51;21.00;70.40
39189;DHT22;24915;50.858;4.376;2022-07-18T01:45:18;21.00;70.80
39189;DHT22;24915;50.858;4.376;2022-07-18T01:47:44;21.00;70.60
39189;DHT22;24915;50.858;4.376;2022-07-18T01:50:11;21.00;70.40
39189;DHT22;24915;50.858;4.376;2022-07-18T01:52:37;21.00;70.60
39189;DHT22;24915;50.858;4.376;2022-07-18T01:55:05;21.00;70.80
39189;DHT22;24915;50.858;4.376;2022-07-18T01:57:31;21.00;70.90
39189;DHT22;24915;50.858;4.376;2022-07-18T01:59:57;21.00;71.20
39189;DHT22;24915;50.858;4.376;2022-07-18T02:02:23;21.00;71.20
39189;DHT22;24915;50.858;4.376;2022-07-18T02:04:49;20.90;71.20
39189;DHT22;24915;50.858;4.376;2022-07-18T02:07:33;20.90;71.10
39189;DHT22;24915;50.858;4.376;2022-07-18T02:10:01;20.90;71.30
39189;DHT22;24915;50.858;4.376;2022-07-18T02:12:27;20.80;71.30
39189;DHT22;24915;50.858;4.376;2022-07-18T02:14:53;20.80;71.40
39189;DHT22;24915;50.858;4.376;2022-07-18T02:17:19;20.80;71.40
39189;DHT22;24915;50.858;4.376;2022-07-18T02:19:45;20.80;71.80
39189;DHT22;24915;50.858;4.376;2022-07-18T02:22:11;20.70;71.80
39189;DHT22;24915;50.858;4.376;2022-07-18T02:24:37;20.70;71.70
39189;DHT22;24915;50.858;4.376;2022-07-18T02:27:03;20.70;72.00
39189;DHT22;24915;50.858;4.376;2022-07-18T02:29:29;20.70;72.10
39189;DHT22;24915;50.858;4.376;2022-07-18T02:31:55;20.60;72.40
39189;DHT22;24915;50.858;4.376;2022-07-18T02:34:21;20.60;72.40
39189;DHT22;24915;50.858;4.376;2022-07-18T02:36:46;20.60;72.40
39189;DHT22;24915;50.858;4.376;2022-07-18T02:39:13;20.60;72.60
39189;DHT22;24915;50.858;4.376;2022-07-18T02:41:39;20.60;72.60
39189;DHT22;24915;50.858;4.376;2022-07-18T02:44:05;20.60;72.70
39189;DHT22;24915;50.858;4.376;2022-07-18T02:46:31;20.60;72.80
39189;DHT22;24915;50.858;4.376;2022-07-18T02:48:56;20.50;72.70
39189;DHT22;24915;50.858;4.376;2022-07-18T02:51:22;20.50;73.10
39189;DHT22;24915;50.858;4.376;2022-07-18T02:53:48;20.50;73.30
39189;DHT22;24915;50.858;4.376;2022-07-18T02:56:13;20.40;73.30
39189;DHT22;24915;50.858;4.376;2022-07-18T02:58:39;20.40;73.40
39189;DHT22;24915;50.858;4.376;2022-07-18T03:01:05;20.40;73.50
39189;DHT22;24915;50.858;4.376;2022-07-18T03:03:30;20.40;73.50
39189;DHT22;24915;50.858;4.376;2022-07-18T03:05:56;20.40;74.10
39189;DHT22;24915;50.858;4.376;2022-07-18T03:08:22;20.30;73.80
39189;DHT22;24915;50.858;4.376;2022-07-18T03:10:47;20.30;74.00
39189;DHT22;24915;50.858;4.376;2022-07-18T03:13:13;20.20;74.40
39189;DHT22;24915;50.858;4.376;2022-07-18T03:15:40;20.20;74.10
39189;DHT22;24915;50.858;4.376;2022-07-18T03:18:05;20.20;74.70
39189;DHT22;24915;50.858;4.376;2022-07-18T03:20:31;20.10;73.80
39189;DHT22;24915;50.858;4.376;2022-07-18T03:22:57;20.10;73.60
39189;DHT22;24915;50.858;4.376;2022-07-18T03:25:23;20.10;73.70
39189;DHT22;24915;50.858;4.376;2022-07-18T03:27:49;20.10;73.80
39189;DHT22;24915;50.858;4.376;2022-07-18T03:30:14;20.10;73.90
39189;DHT22;24915;50.858;4.376;2022-07-18T03:32:40;20.10;73.80
39189;DHT22;24915;50.858;4.376;2022-07-18T03:35:06;20.10;73.80
39189;DHT22;24915;50.858;4.376;2022-07-18T03:37:32;20.10;74.00
39189;DHT22;24915;50.858;4.376;2022-07-18T03:39:58;20.10;73.80
39189;DHT22;24915;50.858;4.376;2022-07-18T03:42:23;20.10;74.10
39189;DHT22;24915;50.858;4.376;2022-07-18T03:44:49;20.10;74.60
39189;DHT22;24915;50.858;4.376;2022-07-18T03:47:15;20.10;73.80
39189;DHT22;24915;50.858;4.376;2022-07-18T03:49:40;20.10;74.00
39189;DHT22;24915;50.858;4.376;2022-07-18T03:52:06;20.10;74.10
39189;DHT22;24915;50.858;4.376;2022-07-18T03:54:32;20.10;74.70
39189;DHT22;24915;50.858;4.376;2022-07-18T03:56:58;20.10;74.30
39189;DHT22;24915;50.858;4.376;2022-07-18T03:59:23;20.10;74.40
39189;DHT22;24915;50.858;4.376;2022-07-18T04:01:49;20.00;74.40
39189;DHT22;24915;50.858;4.376;2022-07-18T04:04:15;20.00;75.10
39189;DHT22;24915;50.858;4.376;2022-07-18T04:06:40;20.10;74.40
39189;DHT22;24915;50.858;4.376;2022-07-18T04:09:06;20.10;74.60
39189;DHT22;24915;50.858;4.376;2022-07-18T04:11:32;20.10;74.90
39189;DHT22;24915;50.858;4.376;2022-07-18T04:13:58;20.10;74.40
39189;DHT22;24915;50.858;4.376;2022-07-18T04:16:24;20.10;74.30
39189;DHT22;24915;50.858;4.376;2022-07-18T04:18:50;20.20;74.30
39189;DHT22;24915;50.858;4.376;2022-07-18T04:21:16;20.10;74.20
39189;DHT22;24915;50.858;4.376;2022-07-18T04:23:42;20.10;74.60
39189;DHT22;24915;50.858;4.376;2022-07-18T04:26:08;20.10;74.50
39189;DHT22;24915;50.858;4.376;2022-07-18T04:28:33;20.10;74.60
39189;DHT22;24915;50.858;4.376;2022-07-18T04:30:59;20.10;75.20
39189;DHT22;24915;50.858;4.376;2022-07-18T04:33:25;20.20;75.70
39189;DHT22;24915;50.858;4.376;2022-07-18T04:35:51;20.20;74.60
39189;DHT22;24915;50.858;4.376;2022-07-18T04:38:17;20.20;74.10
39189;DHT22;24915;50.858;4.376;2022-07-18T04:40:42;20.20;74.00
39189;DHT22;24915;50.858;4.376;2022-07-18T04:43:08;20.30;73.90
39189;DHT22;24915;50.858;4.376;2022-07-18T04:45:35;20.30;73.30
39189;DHT22;24915;50.858;4.376;2022-07-18T04:48:01;20.40;73.30
39189;DHT22;24915;50.858;4.376;2022-07-18T04:50:28;20.40;73.00
39189;DHT22;24915;50.858;4.376;2022-07-18T04:52:56;20.50;72.60
39189;DHT22;24915;50.858;4.376;2022-07-18T04:55:23;20.50;72.40
39189;DHT22;24915;50.858;4.376;2022-07-18T04:57:50;20.50;72.60
39189;DHT22;24915;50.858;4.376;2022-07-18T05:00:19;20.60;72.50
39189;DHT22;24915;50.858;4.376;2022-07-18T05:02:47;20.60;71.90
39189;DHT22;24915;50.858;4.376;2022-07-18T05:05:14;20.60;71.70
39189;DHT22;24915;50.858;4.376;2022-07-18T05:07:42;20.60;71.70
39189;DHT22;24915;50.858;4.376;2022-07-18T05:10:10;20.70;71.40
39189;DHT22;24915;50.858;4.376;2022-07-18T05:12:37;20.80;71.30
39189;DHT22;24915;50.858;4.376;2022-07-18T05:15:08;20.80;71.80
39189;DHT22;24915;50.858;4.376;2022-07-18T05:17:35;20.90;71.50
39189;DHT22;24915;50.858;4.376;2022-07-18T05:20:02;21.00;70.60
39189;DHT22;24915;50.858;4.376;2022-07-18T05:22:29;21.10;70.30
39189;DHT22;24915;50.858;4.376;2022-07-18T05:24:54;21.10;70.20
39189;DHT22;24915;50.858;4.376;2022-07-18T05:27:20;21.20;70.20
39189;DHT22;24915;50.858;4.376;2022-07-18T05:29:46;21.30;70.00
39189;DHT22;24915;50.858;4.376;2022-07-18T05:32:12;21.50;69.80
39189;DHT22;24915;50.858;4.376;2022-07-18T05:34:38;21.60;69.30
39189;DHT22;24915;50.858;4.376;2022-07-18T05:37:03;21.60;69.40
39189;DHT22;24915;50.858;4.376;2022-07-18T05:39:29;21.80;69.10
39189;DHT22;24915;50.858;4.376;2022-07-18T05:41:55;21.90;69.10
39189;DHT22;24915;50.858;4.376;2022-07-18T05:44:20;22.00;68.60
39189;DHT22;24915;50.858;4.376;2022-07-18T05:46:47;22.20;68.50
39189;DHT22;24915;50.858;4.376;2022-07-18T05:49:13;22.30;68.40
39189;DHT22;24915;50.858;4.376;2022-07-18T05:51:39;22.60;68.40
39189;DHT22;24915;50.858;4.376;2022-07-18T05:54:05;22.70;67.20
39189;DHT22;24915;50.858;4.376;2022-07-18T05:56:31;22.90;66.50
39189;DHT22;24915;50.858;4.376;2022-07-18T05:58:57;23.00;65.50
39189;DHT22;24915;50.858;4.376;2022-07-18T06:01:23;23.20;66.00
39189;DHT22;24915;50.858;4.376;2022-07-18T06:03:49;23.40;65.60
39189;DHT22;24915;50.858;4.376;2022-07-18T06:06:15;23.50;66.10
39189;DHT22;24915;50.858;4.376;2022-07-18T06:08:41;23.70;65.50
39189;DHT22;24915;50.858;4.376;2022-07-18T06:11:08;23.80;65.90
39189;DHT22;24915;50.858;4.376;2022-07-18T06:13:39;23.90;65.30
39189;DHT22;24915;50.858;4.376;2022-07-18T06:16:06;24.10;63.70
39189;DHT22;24915;50.858;4.376;2022-07-18T06:18:32;24.20;62.10
39189;DHT22;24915;50.858;4.376;2022-07-18T06:21:00;24.30;61.30
39189;DHT22;24915;50.858;4.376;2022-07-18T06:23:26;24.40;60.80
39189;DHT22;24915;50.858;4.376;2022-07-18T06:25:52;24.40;60.10
39189;DHT22;24915;50.858;4.376;2022-07-18T06:28:17;24.30;60.90
39189;DHT22;24915;50.858;4.376;2022-07-18T06:30:43;24.30;61.40
39189;DHT22;24915;50.858;4.376;2022-07-18T06:33:09;24.40;61.30
39189;DHT22;24915;50.858;4.376;2022-07-18T06:35:36;24.50;61.90
39189;DHT22;24915;50.858;4.376;2022-07-18T06:38:01;24.70;61.40
39189;DHT22;24915;50.858;4.376;2022-07-18T06:40:27;24.80;61.50
39189;DHT22;24915;50.858;4.376;2022-07-18T06:42:53;25.00;60.90
39189;DHT22;24915;50.858;4.376;2022-07-18T06:45:19;25.10;60.50
39189;DHT22;24915;50.858;4.376;2022-07-18T06:47:44;25.20;60.00
39189;DHT22;24915;50.858;4.376;2022-07-18T06:50:12;25.30;60.30
39189;DHT22;24915;50.858;4.376;2022-07-18T06:52:40;25.60;59.90
39189;DHT22;24915;50.858;4.376;2022-07-18T06:55:06;25.80;59.60
39189;DHT22;24915;50.858;4.376;2022-07-18T06:57:32;25.90;58.80
39189;DHT22;24915;50.858;4.376;2022-07-18T06:59:58;25.90;58.70
39189;DHT22;24915;50.858;4.376;2022-07-18T07:02:24;26.10;58.10
39189;DHT22;24915;50.858;4.376;2022-07-18T07:04:50;26.20;57.90
39189;DHT22;24915;50.858;4.376;2022-07-18T07:07:16;26.20;57.40
39189;DHT22;24915;50.858;4.376;2022-07-18T07:09:42;26.30;57.10
39189;DHT22;24915;50.858;4.376;2022-07-18T07:12:07;26.30;56.90
39189;DHT22;24915;50.858;4.376;2022-07-18T07:14:36;26.40;56.90
39189;DHT22;24915;50.858;4.376;2022-07-18T07:17:02;26.50;57.10
39189;DHT22;24915;50.858;4.376;2022-07-18T07:19:27;26.60;57.00
39189;DHT22;24915;50.858;4.376;2022-07-18T07:21:53;26.70;56.90
39189;DHT22;24915;50.858;4.376;2022-07-18T07:24:19;26.90;56.70
39189;DHT22;24915;50.858;4.376;2022-07-18T07:26:44;27.00;56.70
39189;DHT22;24915;50.858;4.376;2022-07-18T07:29:10;27.20;56.20
39189;DHT22;24915;50.858;4.376;2022-07-18T07:31:36;27.30;56.70
39189;DHT22;24915;50.858;4.376;2022-07-18T07:34:02;27.50;55.90
39189;DHT22;24915;50.858;4.376;2022-07-18T07:36:27;27.60;56.30
39189;DHT22;24915;50.858;4.376;2022-07-18T07:38:53;27.80;55.80
39189;DHT22;24915;50.858;4.376;2022-07-18T07:41:19;28.00;55.70
39189;DHT22;24915;50.858;4.376;2022-07-18T07:43:45;28.20;55.50
39189;DHT22;24915;50.858;4.376;2022-07-18T07:46:11;28.20;54.80
39189;DHT22;24915;50.858;4.376;2022-07-18T07:48:37;28.20;54.60
39189;DHT22;24915;50.858;4.376;2022-07-18T07:51:03;28.30;55.20
39189;DHT22;24915;50.858;4.376;2022-07-18T07:53:29;28.40;54.50
39189;DHT22;24915;50.858;4.376;2022-07-18T07:55:55;28.50;54.80
39189;DHT22;24915;50.858;4.376;2022-07-18T07:58:20;28.60;54.90
39189;DHT22;24915;50.858;4.376;2022-07-18T08:00:46;28.70;54.70
39189;DHT22;24915;50.858;4.376;2022-07-18T08:03:12;28.90;54.80
39189;DHT22;24915;50.858;4.376;2022-07-18T08:05:43;29.00;54.60
39189;DHT22;24915;50.858;4.376;2022-07-18T08:08:09;29.30;54.00
39189;DHT22;24915;50.858;4.376;2022-07-18T08:10:35;29.20;53.90
39189;DHT22;24915;50.858;4.376;2022-07-18T08:13:01;29.20;54.60
39189;DHT22;24915;50.858;4.376;2022-07-18T08:15:27;29.50;54.20
39189;DHT22;24915;50.858;4.376;2022-07-18T08:17:53;29.70;53.60
39189;DHT22;24915;50.858;4.376;2022-07-18T08:20:19;29.90;53.60
39189;DHT22;24915;50.858;4.376;2022-07-18T08:25:25;30.00;53.20
39189;DHT22;24915;50.858;4.376;2022-07-18T08:27:51;30.10;53.50
39189;DHT22;24915;50.858;4.376;2022-07-18T08:30:17;30.40;52.80
39189;DHT22;24915;50.858;4.376;2022-07-18T08:32:43;30.50;52.20
39189;DHT22;24915;50.858;4.376;2022-07-18T08:35:09;30.60;51.90
39189;DHT22;24915;50.858;4.376;2022-07-18T08:37:35;30.70;51.80
39189;DHT22;24915;50.858;4.376;2022-07-18T08:40:01;30.70;51.50
39189;DHT22;24915;50.858;4.376;2022-07-18T08:42:27;30.70;51.20
39189;DHT22;24915;50.858;4.376;2022-07-18T08:44:54;30.80;51.40
39189;DHT22;24915;50.858;4.376;2022-07-18T08:47:21;31.00;50.70
39189;DHT22;24915;50.858;4.376;2022-07-18T08:49:47;30.80;51.00
39189;DHT22;24915;50.858;4.376;2022-07-18T08:52:14;30.80;50.50
39189;DHT22;24915;50.858;4.376;2022-07-18T08:54:41;30.70;50.70
39189;DHT22;24915;50.858;4.376;2022-07-18T08:57:07;30.70;51.10
39189;DHT22;24915;50.858;4.376;2022-07-18T08:59:33;30.80;51.40
39189;DHT22;24915;50.858;4.376;2022-07-18T09:01:58;30.90;50.60
39189;DHT22;24915;50.858;4.376;2022-07-18T09:04:41;31.00;50.20
39189;DHT22;24915;50.858;4.376;2022-07-18T09:07:09;30.90;50.90
39189;DHT22;24915;50.858;4.376;2022-07-18T09:09:36;30.90;51.40
39189;DHT22;24915;50.858;4.376;2022-07-18T09:12:04;30.90;50.60
39189;DHT22;24915;50.858;4.376;2022-07-18T09:14:41;30.80;51.30
39189;DHT22;24915;50.858;4.376;2022-07-18T09:19:57;30.70;50.90
39189;DHT22;24915;50.858;4.376;2022-07-18T09:22:24;30.60;51.20
39189;DHT22;24915;50.858;4.376;2022-07-18T09:25:13;30.90;51.70
39189;DHT22;24915;50.858;4.376;2022-07-18T09:27:41;31.10;49.90
39189;DHT22;24915;50.858;4.376;2022-07-18T09:32:51;31.20;49.60
39189;DHT22;24915;50.858;4.376;2022-07-18T09:35:23;31.30;50.60
39189;DHT22;24915;50.858;4.376;2022-07-18T09:40:32;31.90;49.60
39189;DHT22;24915;50.858;4.376;2022-07-18T09:43:02;32.30;49.90
39189;DHT22;24915;50.858;4.376;2022-07-18T09:45:37;32.50;49.30
39189;DHT22;24915;50.858;4.376;2022-07-18T09:48:08;32.90;48.40
39189;DHT22;24915;50.858;4.376;2022-07-18T09:50:38;33.20;48.30
39189;DHT22;24915;50.858;4.376;2022-07-18T09:53:20;33.00;47.90
39189;DHT22;24915;50.858;4.376;2022-07-18T09:58:31;33.30;47.50
39189;DHT22;24915;50.858;4.376;2022-07-18T10:00:59;33.40;48.00
39189;DHT22;24915;50.858;4.376;2022-07-18T10:03:25;33.40;47.50
39189;DHT22;24915;50.858;4.376;2022-07-18T10:05:52;33.50;46.80
39189;DHT22;24915;50.858;4.376;2022-07-18T10:08:27;33.30;47.30
39189;DHT22;24915;50.858;4.376;2022-07-18T10:10:54;33.20;47.40
39189;DHT22;24915;50.858;4.376;2022-07-18T10:13:22;33.40;48.00
39189;DHT22;24915;50.858;4.376;2022-07-18T10:15:49;33.70;47.00
39189;DHT22;24915;50.858;4.376;2022-07-18T10:18:21;33.90;46.60
39189;DHT22;24915;50.858;4.376;2022-07-18T10:20:55;34.20;46.40
39189;DHT22;24915;50.858;4.376;2022-07-18T10:23:56;34.40;46.40
39189;DHT22;24915;50.858;4.376;2022-07-18T10:39:13;36.00;42.90
39189;DHT22;24915;50.858;4.376;2022-07-18T10:57:40;37.10;40.90
39189;DHT22;24915;50.858;4.376;2022-07-18T11:00:08;37.10;40.10
39189;DHT22;24915;50.858;4.376;2022-07-18T11:02:37;37.00;40.30
39189;DHT22;24915;50.858;4.376;2022-07-18T11:18:27;37.50;41.10
39189;DHT22;24915;50.858;4.376;2022-07-18T11:20:53;37.80;40.80
39189;DHT22;24915;50.858;4.376;2022-07-18T11:23:20;37.90;39.70
39189;DHT22;24915;50.858;4.376;2022-07-18T11:26:19;37.40;39.10
39189;DHT22;24915;50.858;4.376;2022-07-18T11:28:46;37.20;39.00
39189;DHT22;24915;50.858;4.376;2022-07-18T11:31:14;36.90;39.70
39189;DHT22;24915;50.858;4.376;2022-07-18T11:33:46;37.00;40.10
39189;DHT22;24915;50.858;4.376;2022-07-18T11:36:17;37.40;40.90
39189;DHT22;24915;50.858;4.376;2022-07-18T11:38:54;38.00;40.00
39189;DHT22;24915;50.858;4.376;2022-07-18T11:41:22;38.30;39.60
39189;DHT22;24915;50.858;4.376;2022-07-18T11:43:50;38.80;39.00
39189;DHT22;24915;50.858;4.376;2022-07-18T11:46:18;39.00;37.60
39189;DHT22;24915;50.858;4.376;2022-07-18T11:48:47;38.80;36.90
39189;DHT22;24915;50.858;4.376;2022-07-18T11:51:18;38.50;36.90
39189;DHT22;24915;50.858;4.376;2022-07-18T11:53:52;38.20;37.50
39189;DHT22;24915;50.858;4.376;2022-07-18T11:56:19;37.80;38.10
39189;DHT22;24915;50.858;4.376;2022-07-18T11:58:47;37.80;38.00
39189;DHT22;24915;50.858;4.376;2022-07-18T12:01:14;37.90;38.50
39189;DHT22;24915;50.858;4.376;2022-07-18T12:03:49;37.90;37.60
39189;DHT22;24915;50.858;4.376;2022-07-18T12:06:22;38.20;38.50
39189;DHT22;24915;50.858;4.376;2022-07-18T12:08:49;38.50;36.60
39189;DHT22;24915;50.858;4.376;2022-07-18T12:11:26;38.50;37.00
39189;DHT22;24915;50.858;4.376;2022-07-18T12:14:15;38.70;37.50
39189;DHT22;24915;50.858;4.376;2022-07-18T12:16:49;38.80;36.90
39189;DHT22;24915;50.858;4.376;2022-07-18T12:19:22;38.70;36.10
39189;DHT22;24915;50.858;4.376;2022-07-18T12:22:10;38.80;36.40
39189;DHT22;24915;50.858;4.376;2022-07-18T12:24:55;39.00;36.20
39189;DHT22;24915;50.858;4.376;2022-07-18T12:27:25;39.50;36.90
39189;DHT22;24915;50.858;4.376;2022-07-18T12:32:25;39.60;34.50
39189;DHT22;24915;50.858;4.376;2022-07-18T12:35:00;39.00;34.80
39189;DHT22;24915;50.858;4.376;2022-07-18T12:37:27;38.50;35.00
39189;DHT22;24915;50.858;4.376;2022-07-18T12:40:09;38.40;35.40
39189;DHT22;24915;50.858;4.376;2022-07-18T12:42:40;38.40;35.40
39189;DHT22;24915;50.858;4.376;2022-07-18T12:45:10;38.40;35.20
39189;DHT22;24915;50.858;4.376;2022-07-18T12:47:36;38.50;36.30
39189;DHT22;24915;50.858;4.376;2022-07-18T12:50:04;38.90;35.00
39189;DHT22;24915;50.858;4.376;2022-07-18T12:52:30;39.00;35.40
39189;DHT22;24915;50.858;4.376;2022-07-18T12:54:56;39.10;34.80
39189;DHT22;24915;50.858;4.376;2022-07-18T12:57:22;39.10;35.90
39189;DHT22;24915;50.858;4.376;2022-07-18T12:59:48;39.40;34.60
39189;DHT22;24915;50.858;4.376;2022-07-18T13:02:14;39.70;34.40
39189;DHT22;24915;50.858;4.376;2022-07-18T13:04:40;39.70;35.10
39189;DHT22;24915;50.858;4.376;2022-07-18T13:07:06;40.10;35.50
39189;DHT22;24915;50.858;4.376;2022-07-18T13:09:32;40.70;35.70
39189;DHT22;24915;50.858;4.376;2022-07-18T13:11:59;41.10;34.10
39189;DHT22;24915;50.858;4.376;2022-07-18T13:14:25;41.20;34.10
39189;DHT22;24915;50.858;4.376;2022-07-18T13:16:51;41.40;33.80
39189;DHT22;24915;50.858;4.376;2022-07-18T13:19:18;41.10;32.40
39189;DHT22;24915;50.858;4.376;2022-07-18T13:21:45;40.70;33.60
39189;DHT22;24915;50.858;4.376;2022-07-18T13:24:11;40.10;32.50
39189;DHT22;24915;50.858;4.376;2022-07-18T13:26:37;39.90;34.40
39189;DHT22;24915;50.858;4.376;2022-07-18T13:29:04;39.80;31.90
39189;DHT22;24915;50.858;4.376;2022-07-18T13:31:30;39.40;32.10
39189;DHT22;24915;50.858;4.376;2022-07-18T13:33:56;39.40;33.60
39189;DHT22;24915;50.858;4.376;2022-07-18T13:36:21;39.70;33.30
39189;DHT22;24915;50.858;4.376;2022-07-18T13:38:47;39.90;33.30
39189;DHT22;24915;50.858;4.376;2022-07-18T13:41:13;39.70;37.20
39189;DHT22;24915;50.858;4.376;2022-07-18T13:43:39;39.60;34.60
39189;DHT22;24915;50.858;4.376;2022-07-18T13:46:11;39.70;36.30
39189;DHT22;24915;50.858;4.376;2022-07-18T13:48:38;40.00;35.70
39189;DHT22;24915;50.858;4.376;2022-07-18T13:51:05;40.30;34.40
39189;DHT22;24915;50.858;4.376;2022-07-18T13:53:32;40.20;35.50
39189;DHT22;24915;50.858;4.376;2022-07-18T13:55:58;40.40;35.20
39189;DHT22;24915;50.858;4.376;2022-07-18T13:58:23;40.40;32.90
39189;DHT22;24915;50.858;4.376;2022-07-18T14:00:49;39.60;33.30
39189;DHT22;24915;50.858;4.376;2022-07-18T14:03:15;39.50;33.80
39189;DHT22;24915;50.858;4.376;2022-07-18T14:05:41;39.20;33.90
39189;DHT22;24915;50.858;4.376;2022-07-18T14:08:07;39.00;34.80
39189;DHT22;24915;50.858;4.376;2022-07-18T14:10:34;38.70;34.30
39189;DHT22;24915;50.858;4.376;2022-07-18T14:13:00;38.70;35.10
39189;DHT22;24915;50.858;4.376;2022-07-18T14:15:26;39.10;36.80
39189;DHT22;24915;50.858;4.376;2022-07-18T14:17:52;39.40;35.80
39189;DHT22;24915;50.858;4.376;2022-07-18T14:20:18;39.60;35.00
39189;DHT22;24915;50.858;4.376;2022-07-18T14:22:44;39.70;34.80
39189;DHT22;24915;50.858;4.376;2022-07-18T14:25:14;39.70;33.40
39189;DHT22;24915;50.858;4.376;2022-07-18T14:27:40;39.30;34.70
39189;DHT22;24915;50.858;4.376;2022-07-18T14:30:09;39.20;35.40
39189;DHT22;24915;50.858;4.376;2022-07-18T14:32:35;39.10;35.20
39189;DHT22;24915;50.858;4.376;2022-07-18T14:35:01;38.70;34.30
39189;DHT22;24915;50.858;4.376;2022-07-18T14:37:26;38.40;35.60
39189;DHT22;24915;50.858;4.376;2022-07-18T14:39:52;38.00;34.80
39189;DHT22;24915;50.858;4.376;2022-07-18T14:42:18;37.70;35.60
39189;DHT22;24915;50.858;4.376;2022-07-18T14:44:43;37.60;35.90
39189;DHT22;24915;50.858;4.376;2022-07-18T14:47:09;37.80;35.60
39189;DHT22;24915;50.858;4.376;2022-07-18T14:49:36;38.10;36.00
39189;DHT22;24915;50.858;4.376;2022-07-18T14:52:01;38.30;36.50
39189;DHT22;24915;50.858;4.376;2022-07-18T14:54:28;38.60;36.20
39189;DHT22;24915;50.858;4.376;2022-07-18T14:56:54;38.80;35.00
39189;DHT22;24915;50.858;4.376;2022-07-18T14:59:20;38.80;34.80
39189;DHT22;24915;50.858;4.376;2022-07-18T15:01:47;38.80;35.60
39189;DHT22;24915;50.858;4.376;2022-07-18T15:04:12;39.00;35.80
39189;DHT22;24915;50.858;4.376;2022-07-18T15:06:38;38.70;33.90
39189;DHT22;24915;50.858;4.376;2022-07-18T15:09:05;38.00;34.70
39189;DHT22;24915;50.858;4.376;2022-07-18T15:11:32;37.50;35.20
39189;DHT22;24915;50.858;4.376;2022-07-18T15:13:58;37.50;36.60
39189;DHT22;24915;50.858;4.376;2022-07-18T15:16:24;37.80;35.90
39189;DHT22;24915;50.858;4.376;2022-07-18T15:18:49;38.00;35.70
39189;DHT22;24915;50.858;4.376;2022-07-18T15:21:15;38.20;36.40
39189;DHT22;24915;50.858;4.376;2022-07-18T15:23:42;38.20;36.40
39189;DHT22;24915;50.858;4.376;2022-07-18T15:26:07;38.20;34.70
39189;DHT22;24915;50.858;4.376;2022-07-18T15:28:33;37.90;35.50
39189;DHT22;24915;50.858;4.376;2022-07-18T15:30:59;37.70;34.90
39189;DHT22;24915;50.858;4.376;2022-07-18T15:33:25;37.40;35.20
39189;DHT22;24915;50.858;4.376;2022-07-18T15:35:51;37.30;36.10
39189;DHT22;24915;50.858;4.376;2022-07-18T15:38:17;37.40;36.40
39189;DHT22;24915;50.858;4.376;2022-07-18T15:40:43;37.50;35.70
39189;DHT22;24915;50.858;4.376;2022-07-18T15:43:09;37.70;35.10
39189;DHT22;24915;50.858;4.376;2022-07-18T15:45:35;37.40;35.50
39189;DHT22;24915;50.858;4.376;2022-07-18T15:48:01;37.10;35.90
39189;DHT22;24915;50.858;4.376;2022-07-18T15:50:27;37.00;36.10
39189;DHT22;24915;50.858;4.376;2022-07-18T15:52:53;36.90;36.00
39189;DHT22;24915;50.858;4.376;2022-07-18T15:55:19;36.90;36.70
39189;DHT22;24915;50.858;4.376;2022-07-18T15:57:44;36.90;36.50
39189;DHT22;24915;50.858;4.376;2022-07-18T16:00:10;37.00;36.70
39189;DHT22;24915;50.858;4.376;2022-07-18T16:02:36;37.00;36.70
39189;DHT22;24915;50.858;4.376;2022-07-18T16:05:03;37.00;36.00
39189;DHT22;24915;50.858;4.376;2022-07-18T16:07:29;36.70;36.10
39189;DHT22;24915;50.858;4.376;2022-07-18T16:09:54;36.60;36.40
39189;DHT22;24915;50.858;4.376;2022-07-18T16:12:22;36.50;36.80
39189;DHT22;24915;50.858;4.376;2022-07-18T16:14:48;36.40;37.00
39189;DHT22;24915;50.858;4.376;2022-07-18T16:17:14;36.40;38.20
39189;DHT22;24915;50.858;4.376;2022-07-18T16:19:39;36.40;37.20
39189;DHT22;24915;50.858;4.376;2022-07-18T16:22:05;36.30;36.60
39189;DHT22;24915;50.858;4.376;2022-07-18T16:24:31;36.20;36.90
39189;DHT22;24915;50.858;4.376;2022-07-18T16:26:57;36.10;37.40